createdAt,value
2022-11-22T00:01:04.723Z,-5.26
2022-11-22T00:03:34.310Z,-5.36
2022-11-22T00:06:03.620Z,-5.53
2022-11-22T00:08:33.046Z,-5.38
2022-11-22T00:11:07.123Z,-5.41
2022-11-22T00:13:41.428Z,-5.27
2022-11-22T00:16:12.502Z,-5.34
2022-11-22T00:21:16.402Z,-5.27
2022-11-22T00:23:45.461Z,-5.31
2022-11-22T00:26:19.749Z,-5.33
2022-11-22T00:28:49.418Z,-5.24
2022-11-22T00:31:20.397Z,-5.37
2022-11-22T00:33:49.548Z,-5.35
2022-11-22T00:36:18.932Z,-5.29
2022-11-22T00:38:53.171Z,-5.21
2022-11-22T00:41:22.417Z,-5.21
2022-11-22T00:43:51.523Z,-5.15
2022-11-22T00:46:22.679Z,-5.13
2022-11-22T00:48:51.889Z,-5.12
2022-11-22T00:51:21.033Z,-5.09
2022-11-22T00:53:55.256Z,-5.01
2022-11-22T00:56:24.453Z,-5.14
2022-11-22T00:58:53.513Z,-5.12
2022-11-22T01:01:24.646Z,-5.10
2022-11-22T01:03:53.888Z,-5.07
2022-11-22T01:06:25.811Z,-5.02
2022-11-22T01:08:55.423Z,-5.04
2022-11-22T01:11:24.517Z,-5.04
2022-11-22T01:13:53.713Z,-4.96
2022-11-22T01:16:24.826Z,-4.97
2022-11-22T01:18:59.084Z,-4.96
2022-11-22T01:21:28.357Z,-4.90
2022-11-22T01:23:57.647Z,-4.91
2022-11-22T01:26:26.890Z,-4.96
2022-11-22T01:28:56.427Z,-4.97
2022-11-22T01:31:32.782Z,-4.98
2022-11-22T01:34:02.381Z,-4.99
2022-11-22T01:36:31.446Z,-4.93
2022-11-22T01:39:01.011Z,-4.78
2022-11-22T01:41:30.151Z,-4.91
2022-11-22T01:43:59.554Z,-5.00
2022-11-22T01:46:36.482Z,-4.84
2022-11-22T01:49:08.520Z,-4.79
2022-11-22T01:51:46.039Z,-4.94
2022-11-22T01:54:19.404Z,-4.97
2022-11-22T01:57:02.855Z,-4.97
2022-11-22T01:59:34.781Z,-5.02
2022-11-22T02:02:14.677Z,-4.97
2022-11-22T02:04:46.878Z,-5.08
2022-11-22T02:07:21.608Z,-5.29
2022-11-22T02:09:53.893Z,-5.15
2022-11-22T02:12:33.498Z,-5.06
2022-11-22T02:15:08.823Z,-5.07
2022-11-22T02:17:37.961Z,-5.07
2022-11-22T02:20:11.138Z,-5.03
2022-11-22T02:22:53.403Z,-4.96
2022-11-22T02:25:32.202Z,-5.08
2022-11-22T02:28:03.638Z,-5.00
2022-11-22T02:30:33.199Z,-5.01
2022-11-22T02:33:02.259Z,-4.96
2022-11-22T02:35:37.139Z,-4.96
2022-11-22T02:38:09.711Z,-4.83
2022-11-22T02:40:42.482Z,-4.89
2022-11-22T02:43:21.491Z,-4.87
2022-11-22T02:45:50.933Z,-4.80
2022-11-22T02:48:20.808Z,-4.79
2022-11-22T02:50:50.112Z,-4.79
2022-11-22T02:53:24.199Z,-4.82
2022-11-22T02:55:53.442Z,-4.76
2022-11-22T02:58:29.511Z,-4.89
2022-11-22T03:00:58.810Z,-4.97
2022-11-22T03:03:27.998Z,-4.79
2022-11-22T03:06:07.847Z,-4.77
2022-11-22T03:08:36.926Z,-4.78
2022-11-22T03:11:08.676Z,-4.75
2022-11-22T03:13:39.523Z,-4.57
2022-11-22T03:16:09.379Z,-4.60
2022-11-22T03:18:39.080Z,-4.65
2022-11-22T03:21:10.736Z,-4.76
2022-11-22T03:23:40.396Z,-4.62
2022-11-22T03:26:10.707Z,-4.74
2022-11-22T03:28:42.108Z,-4.61
2022-11-22T03:31:11.461Z,-4.60
2022-11-22T03:33:40.628Z,-4.57
2022-11-22T03:36:09.868Z,-4.64
2022-11-22T03:38:39.004Z,-4.66
2022-11-22T03:41:08.274Z,-4.65
2022-11-22T03:43:37.470Z,-4.68
2022-11-22T03:46:08.781Z,-4.58
2022-11-22T03:48:37.917Z,-4.68
2022-11-22T03:51:08.152Z,-4.50
2022-11-22T03:53:37.323Z,-4.56
2022-11-22T03:56:07.342Z,-4.69
2022-11-22T04:01:25.472Z,-4.71
2022-11-22T04:03:59.844Z,-4.70
2022-11-22T04:06:29.066Z,-4.69
2022-11-22T04:08:58.242Z,-4.75
2022-11-22T04:11:34.339Z,-4.77
2022-11-22T04:14:16.348Z,-4.76
2022-11-22T04:16:47.180Z,-4.58
2022-11-22T04:19:16.528Z,-4.77
2022-11-22T04:21:43.564Z,-4.60
2022-11-22T04:27:01.461Z,-4.56
2022-11-22T04:29:30.781Z,-4.60
2022-11-22T04:32:15.085Z,-4.58
2022-11-22T04:34:44.319Z,-4.80
2022-11-22T04:37:13.440Z,-4.62
2022-11-22T04:39:42.720Z,-4.93
2022-11-22T04:42:24.715Z,-4.58
2022-11-22T04:44:59.095Z,-4.46
2022-11-22T04:47:48.971Z,-4.43
2022-11-22T04:50:32.937Z,-4.44
2022-11-22T04:53:02.095Z,-4.30
2022-11-22T04:55:31.194Z,-4.33
2022-11-22T04:58:00.632Z,-4.34
2022-11-22T05:00:30.370Z,-4.11
2022-11-22T05:03:07.987Z,-4.09
2022-11-22T05:05:38.270Z,-4.18
2022-11-22T05:08:15.033Z,-4.05
2022-11-22T05:10:59.131Z,-4.12
2022-11-22T05:16:10.331Z,-3.97
2022-11-22T05:18:45.891Z,-3.89
2022-11-22T05:21:20.164Z,-3.91
2022-11-22T05:23:56.104Z,-3.81
2022-11-22T05:26:26.902Z,-3.75
2022-11-22T05:28:57.565Z,-3.69
2022-11-22T05:31:28.313Z,-3.71
2022-11-22T05:33:59.680Z,-3.69
2022-11-22T05:36:33.979Z,-3.79
2022-11-22T05:39:03.543Z,-3.58
2022-11-22T05:41:32.770Z,-3.57
2022-11-22T05:44:02.059Z,-3.54
2022-11-22T05:46:32.149Z,-3.50
2022-11-22T05:51:38.913Z,-3.54
2022-11-22T05:54:07.997Z,-3.44
2022-11-22T05:56:37.196Z,-3.45
2022-11-22T05:59:06.328Z,-3.41
2022-11-22T06:01:35.683Z,-3.30
2022-11-22T06:04:12.090Z,-3.37
2022-11-22T06:06:41.593Z,-3.30
2022-11-22T06:09:10.736Z,-3.35
2022-11-22T06:11:40.575Z,-3.39
2022-11-22T06:14:11.088Z,-3.31
2022-11-22T06:16:40.414Z,-3.26
2022-11-22T06:19:12.731Z,-3.18
2022-11-22T06:21:42.094Z,-3.11
2022-11-22T06:24:12.735Z,-3.07
2022-11-22T06:26:42.207Z,-2.99
2022-11-22T06:29:11.665Z,-3.08
2022-11-22T06:31:40.937Z,-3.06
2022-11-22T06:34:15.049Z,-2.92
2022-11-22T06:36:44.285Z,-2.90
2022-11-22T06:39:13.631Z,-2.76
2022-11-22T06:41:47.866Z,-2.74
2022-11-22T06:44:17.108Z,-2.67
2022-11-22T06:46:46.294Z,-2.68
2022-11-22T06:51:57.451Z,-2.61
2022-11-22T06:54:26.621Z,-2.60
2022-11-22T06:56:55.873Z,-2.61
2022-11-22T06:59:25.014Z,-2.55
2022-11-22T07:02:07.158Z,-2.56
2022-11-22T07:04:56.100Z,-2.47
2022-11-22T07:07:27.980Z,-2.52
2022-11-22T07:09:57.118Z,-2.41
2022-11-22T07:12:31.305Z,-2.46
2022-11-22T07:15:00.667Z,-2.24
2022-11-22T07:17:30.780Z,-2.30
2022-11-22T07:20:02.264Z,-2.15
2022-11-22T07:22:33.650Z,-2.05
2022-11-22T07:25:08.074Z,-2.05
2022-11-22T07:27:37.401Z,-1.96
2022-11-22T07:30:07.765Z,-1.89
2022-11-22T07:32:37.175Z,-1.89
2022-11-22T07:35:10.831Z,-1.90
2022-11-22T07:37:40.094Z,-1.90
2022-11-22T07:40:11.368Z,-1.88
2022-11-22T07:42:41.544Z,-1.86
2022-11-22T07:45:12.107Z,-1.88
2022-11-22T07:47:41.427Z,-1.77
2022-11-22T07:50:17.872Z,-1.78
2022-11-22T07:52:47.201Z,-1.87
2022-11-22T07:55:16.583Z,-1.84
2022-11-22T07:57:48.225Z,-1.72
2022-11-22T08:00:18.016Z,-1.68
2022-11-22T08:02:52.217Z,-1.89
2022-11-22T08:05:23.660Z,-1.98
2022-11-22T08:07:54.456Z,-1.81
2022-11-22T08:10:24.471Z,-1.78
2022-11-22T08:12:53.658Z,-1.63
2022-11-22T08:15:23.124Z,-1.58
2022-11-22T08:17:52.228Z,-1.56
2022-11-22T08:20:23.587Z,-1.57
2022-11-22T08:22:52.738Z,-1.50
2022-11-22T08:25:21.788Z,-1.50
2022-11-22T08:27:51.214Z,-1.48
2022-11-22T08:30:20.476Z,-1.46
2022-11-22T08:32:51.168Z,-1.46
2022-11-22T08:35:22.853Z,-1.42
2022-11-22T08:37:52.135Z,-1.37
2022-11-22T08:40:21.137Z,-1.39
2022-11-22T08:42:50.439Z,-1.37
2022-11-22T08:45:25.041Z,-1.35
2022-11-22T08:47:54.230Z,-1.28
2022-11-22T08:50:25.352Z,-1.41
2022-11-22T08:52:54.592Z,-1.33
2022-11-22T08:55:23.740Z,-1.25
2022-11-22T08:57:58.156Z,-1.29
2022-11-22T09:00:33.033Z,-1.28
2022-11-22T09:03:02.797Z,-1.42
2022-11-22T09:05:34.863Z,-1.20
2022-11-22T09:08:24.746Z,-1.16
2022-11-22T09:10:54.175Z,-1.30
2022-11-22T09:13:23.364Z,-1.19
2022-11-22T09:15:52.744Z,-1.16
2022-11-22T09:18:21.916Z,-1.15
2022-11-22T09:21:00.323Z,-1.07
2022-11-22T09:23:29.959Z,-1.16
2022-11-22T09:26:00.360Z,-0.98
2022-11-22T09:28:30.390Z,-0.99
2022-11-22T09:31:08.379Z,-0.93
2022-11-22T09:33:39.702Z,-0.94
2022-11-22T09:36:13.467Z,-0.94
2022-11-22T09:38:43.074Z,-0.98
2022-11-22T09:41:24.856Z,-1.14
2022-11-22T09:44:03.025Z,-0.85
2022-11-22T09:46:44.920Z,-0.75
2022-11-22T09:49:27.676Z,-1.14
2022-11-22T09:52:11.220Z,-0.85
2022-11-22T09:54:47.153Z,-0.72
2022-11-22T09:57:27.573Z,-0.73
2022-11-22T10:00:03.199Z,-0.69
2022-11-22T10:03:05.606Z,-0.73
2022-11-22T10:05:48.488Z,-0.69
2022-11-22T10:08:35.483Z,-0.76
2022-11-22T10:11:21.243Z,-0.67
2022-11-22T10:13:55.144Z,-0.80
2022-11-22T10:16:32.742Z,-0.77
2022-11-22T10:19:10.821Z,-0.62
2022-11-22T10:21:40.142Z,-0.58
2022-11-22T10:24:22.172Z,-0.54
2022-11-22T10:26:52.060Z,-0.65
2022-11-22T10:29:31.917Z,-0.79
2022-11-22T10:32:07.678Z,-0.56
2022-11-22T10:34:49.583Z,-0.49
2022-11-22T10:37:32.076Z,-0.59
2022-11-22T10:40:18.707Z,-0.48
2022-11-22T10:43:09.427Z,-0.47
2022-11-22T10:45:45.654Z,-0.69
2022-11-22T10:48:28.566Z,-0.68
2022-11-22T10:51:12.279Z,-0.58
2022-11-22T10:54:00.376Z,-0.69
2022-11-22T10:56:41.171Z,-0.56
2022-11-22T10:59:35.765Z,-0.61
2022-11-22T11:02:37.506Z,-0.39
2022-11-22T11:05:12.340Z,-0.45
2022-11-22T11:07:45.570Z,-0.44
2022-11-22T11:10:29.519Z,-0.32
2022-11-22T11:13:07.692Z,-0.50
2022-11-22T11:15:41.137Z,-0.38
2022-11-22T11:18:17.220Z,-0.46
2022-11-22T11:20:51.026Z,-0.61
2022-11-22T11:23:21.396Z,-0.31
2022-11-22T11:25:52.063Z,-0.48
2022-11-22T11:28:25.672Z,-0.80
2022-11-22T11:30:58.140Z,-0.44
2022-11-22T11:33:30.069Z,-0.28
2022-11-22T11:36:05.925Z,-0.30
2022-11-22T11:38:38.474Z,-0.38
2022-11-22T11:41:23.060Z,-0.24
2022-11-22T11:43:55.545Z,-0.35
2022-11-22T11:46:27.017Z,-0.39
2022-11-22T11:48:57.761Z,-0.34
2022-11-22T11:51:37.504Z,-0.33
2022-11-22T11:54:13.036Z,-0.23
2022-11-22T11:56:48.219Z,-0.31
2022-11-22T11:59:21.600Z,-0.41
2022-11-22T12:01:55.666Z,-0.31
2022-11-22T12:04:29.672Z,-0.40
2022-11-22T12:07:04.849Z,-0.27
2022-11-22T12:09:37.524Z,-0.19
2022-11-22T12:12:33.636Z,-0.20
2022-11-22T12:15:14.710Z,-0.31
2022-11-22T12:17:52.230Z,-0.23
2022-11-22T12:20:26.984Z,-0.21
2022-11-22T12:23:12.477Z,-0.28
2022-11-22T12:25:42.430Z,-0.23
2022-11-22T12:28:20.023Z,-0.32
2022-11-22T12:31:01.137Z,-0.27
2022-11-22T12:33:36.093Z,-0.32
2022-11-22T12:36:06.990Z,-0.33
2022-11-22T12:38:42.253Z,-0.30
2022-11-22T12:41:16.688Z,-0.30
2022-11-22T12:43:53.172Z,-0.51
2022-11-22T12:46:32.883Z,-0.43
2022-11-22T12:55:29.023Z,-0.68
2022-11-22T12:58:05.973Z,-0.58
2022-11-22T13:00:42.912Z,-0.53
2022-11-22T13:03:18.233Z,-0.57
2022-11-22T13:05:51.304Z,-0.43
2022-11-22T13:08:33.144Z,-0.46
2022-11-22T13:11:08.735Z,-0.68
2022-11-22T13:13:41.576Z,-0.60
2022-11-22T13:16:13.267Z,-0.49
2022-11-22T13:18:47.605Z,-0.50
2022-11-22T13:21:27.809Z,-0.47
2022-11-22T13:24:14.292Z,-0.37
2022-11-22T13:26:58.390Z,-0.46
2022-11-22T13:29:30.469Z,-0.30
2022-11-22T13:32:03.946Z,-0.33
2022-11-22T13:34:35.503Z,-0.37
2022-11-22T13:37:13.570Z,-0.28
2022-11-22T13:39:46.917Z,-0.47
2022-11-22T13:42:27.265Z,-0.37
2022-11-22T13:45:25.956Z,-0.31
2022-11-22T13:47:55.311Z,-0.36
2022-11-22T13:51:02.808Z,-0.31
2022-11-22T13:53:34.726Z,-0.28
2022-11-22T13:56:45.796Z,-0.36
2022-11-22T13:59:22.325Z,-0.53
2022-11-22T14:02:02.512Z,-0.50
2022-11-22T14:04:45.635Z,-0.62
2022-11-22T14:07:31.980Z,-0.44
2022-11-22T14:10:02.352Z,-0.45
2022-11-22T14:13:04.306Z,-0.38
2022-11-22T14:16:03.461Z,-0.35
2022-11-22T14:18:52.164Z,-0.29
2022-11-22T14:21:42.304Z,-0.33
2022-11-22T14:24:21.504Z,-0.29
2022-11-22T14:27:00.015Z,-0.27
2022-11-22T14:30:06.836Z,-0.13
2022-11-22T14:32:52.086Z,-0.16
2022-11-22T14:35:31.942Z,-0.20
2022-11-22T14:38:07.000Z,-0.31
2022-11-22T14:40:41.162Z,-0.32
2022-11-22T14:43:30.000Z,-0.32
2022-11-22T14:46:04.189Z,-0.25
2022-11-22T14:48:45.775Z,-0.29
2022-11-22T14:51:30.741Z,-0.32
2022-11-22T14:54:03.753Z,-0.41
2022-11-22T14:56:36.205Z,-0.50
2022-11-22T14:59:21.618Z,-0.59
2022-11-22T15:02:16.874Z,-0.46
2022-11-22T15:09:21.752Z,-0.72
2022-11-22T15:11:32.615Z,-0.38
2022-11-22T15:14:34.496Z,-0.33
2022-11-22T15:57:48.869Z,-0.25
2022-11-22T16:00:22.704Z,-0.23
2022-11-22T16:02:54.796Z,-0.28
2022-11-22T16:06:09.700Z,-0.20
2022-11-22T16:08:26.613Z,-0.33
2022-11-22T16:11:03.192Z,-0.26
2022-11-22T16:13:36.843Z,-0.20
2022-11-22T16:16:09.074Z,-0.28
2022-11-22T16:18:38.841Z,-0.21
2022-11-22T16:21:20.317Z,-0.21
2022-11-22T16:23:50.083Z,-0.31
2022-11-22T16:26:29.787Z,-0.29
2022-11-22T16:29:20.028Z,-0.38
2022-11-22T16:31:49.320Z,-0.21
2022-11-22T16:34:18.754Z,-0.24
2022-11-22T16:36:48.214Z,-0.16
2022-11-22T16:39:17.782Z,-0.25
2022-11-22T16:41:49.408Z,-0.23
2022-11-22T16:44:21.165Z,-0.22
2022-11-22T16:46:50.405Z,-0.20
2022-11-22T16:49:21.253Z,-0.17
2022-11-22T16:51:52.476Z,-0.15
2022-11-22T16:54:23.504Z,-0.17
2022-11-22T16:56:54.894Z,-0.11
2022-11-22T16:59:24.103Z,-0.08
2022-11-22T17:01:53.341Z,-0.17
2022-11-22T17:04:40.678Z,-0.24
2022-11-22T17:07:11.393Z,-0.30
2022-11-22T17:09:40.723Z,-0.31
2022-11-22T17:12:16.041Z,-0.25
2022-11-22T17:14:48.005Z,-0.25
2022-11-22T17:17:17.010Z,-0.13
2022-11-22T17:19:53.222Z,-0.18
2022-11-22T17:22:23.382Z,-0.20
2022-11-22T17:24:52.593Z,-0.17
2022-11-22T17:27:24.247Z,-0.14
2022-11-22T17:29:53.849Z,-0.14
2022-11-22T17:32:23.187Z,-0.15
2022-11-22T17:34:57.710Z,-0.22
2022-11-22T17:37:29.064Z,-0.20
2022-11-22T17:40:03.622Z,-0.23
2022-11-22T17:42:40.984Z,-0.27
2022-11-22T17:45:16.694Z,-0.25
2022-11-22T17:47:48.913Z,-0.22
2022-11-22T17:50:24.109Z,-0.18
2022-11-22T17:52:54.802Z,-0.12
2022-11-22T17:55:26.404Z,-0.39
2022-11-22T17:58:04.173Z,-0.16
2022-11-22T18:00:38.961Z,-0.22
2022-11-22T18:03:08.451Z,-0.19
2022-11-22T18:05:37.843Z,-0.24
2022-11-22T18:08:15.312Z,-0.24
2022-11-22T18:10:44.574Z,-0.26
2022-11-22T18:13:22.833Z,-0.26
2022-11-22T18:16:03.562Z,-0.30
2022-11-22T18:18:56.417Z,-0.29
2022-11-22T18:21:24.930Z,-0.22
2022-11-22T18:23:54.213Z,-0.15
2022-11-22T18:26:38.899Z,-0.30
2022-11-22T18:32:03.524Z,-0.25
2022-11-22T18:34:32.967Z,-0.19
2022-11-22T18:37:03.865Z,-0.15
2022-11-22T18:39:40.436Z,-0.19
2022-11-22T18:42:12.197Z,-0.14
2022-11-22T18:44:43.959Z,-0.11
2022-11-22T18:47:13.499Z,-0.11
2022-11-22T18:49:42.772Z,-0.17
2022-11-22T18:52:14.950Z,-0.14
2022-11-22T18:54:47.024Z,-0.26
2022-11-22T18:57:17.017Z,-0.18
2022-11-22T18:59:53.304Z,-0.21
2022-11-22T19:02:25.517Z,-0.16
2022-11-22T19:04:56.288Z,-0.12
2022-11-22T19:07:31.118Z,-0.14
2022-11-22T19:10:01.954Z,-0.21
2022-11-22T19:12:32.563Z,-0.24
2022-11-22T19:15:03.855Z,-0.22
2022-11-22T19:17:34.167Z,-0.17
2022-11-22T19:20:03.693Z,-0.21
2022-11-22T19:22:32.982Z,-0.31
2022-11-22T19:25:02.580Z,-0.29
2022-11-22T19:27:32.780Z,-0.20
2022-11-22T19:30:04.146Z,-0.23
2022-11-22T19:32:33.570Z,-0.40
2022-11-22T19:35:02.865Z,-0.29
2022-11-22T19:37:37.346Z,-0.29
2022-11-22T19:40:17.873Z,-0.25
2022-11-22T19:42:47.284Z,-0.36
2022-11-22T19:45:18.665Z,-0.39
2022-11-22T19:47:53.379Z,-0.42
2022-11-22T19:50:22.819Z,-0.37
2022-11-22T19:52:53.259Z,-0.37
2022-11-22T19:55:27.496Z,-0.50
2022-11-22T19:57:56.741Z,-0.36
2022-11-22T20:00:28.502Z,-0.41
2022-11-22T20:02:58.992Z,-0.40
2022-11-22T20:05:34.124Z,-0.44
2022-11-22T20:08:03.340Z,-0.48
2022-11-22T20:10:44.515Z,-0.31
2022-11-22T20:13:13.727Z,-0.29
2022-11-22T20:15:45.307Z,-0.36
2022-11-22T20:18:14.471Z,-0.26
2022-11-22T20:20:43.731Z,-0.20
2022-11-22T20:23:12.860Z,-0.29
2022-11-22T20:25:42.398Z,-0.42
2022-11-22T20:28:11.823Z,-0.51
2022-11-22T20:30:41.070Z,-0.42
2022-11-22T20:33:12.699Z,-0.28
2022-11-22T20:35:42.143Z,-0.38
2022-11-22T20:38:12.829Z,-0.30
2022-11-22T20:40:42.323Z,-0.24
2022-11-22T20:43:11.686Z,-0.27
2022-11-22T20:45:40.916Z,-0.39
2022-11-22T20:48:19.773Z,-0.30
2022-11-22T20:50:52.857Z,-0.35
2022-11-22T20:53:22.283Z,-0.44
2022-11-22T20:55:51.476Z,-0.44
2022-11-22T20:58:20.954Z,-0.47
2022-11-22T21:00:50.299Z,-0.48
2022-11-22T21:03:21.773Z,-0.43
2022-11-22T21:05:53.828Z,-0.34
2022-11-22T21:08:24.089Z,-0.36
2022-11-22T21:11:13.718Z,-0.44
2022-11-22T21:13:43.384Z,-0.35
2022-11-22T21:16:23.205Z,-0.33
2022-11-22T21:19:01.856Z,-0.35
2022-11-22T21:21:31.879Z,-0.52
2022-11-22T21:24:02.563Z,-0.52
2022-11-22T21:26:37.093Z,-0.43
2022-11-22T21:29:15.959Z,-0.44
2022-11-22T21:31:45.600Z,-0.60
2022-11-22T21:34:17.004Z,-0.42
2022-11-22T21:36:52.981Z,-0.25
2022-11-22T21:39:22.217Z,-0.43
2022-11-22T21:42:01.567Z,-0.40
2022-11-22T21:44:31.062Z,-0.44
2022-11-22T21:47:00.397Z,-0.42
2022-11-22T21:49:43.217Z,-0.49
2022-11-22T21:52:14.523Z,-0.49
2022-11-22T21:54:43.745Z,-0.44
2022-11-22T21:57:13.782Z,-0.57
2022-11-22T21:59:43.003Z,-0.45
2022-11-22T22:02:12.391Z,-0.34
2022-11-22T22:04:41.763Z,-0.33
2022-11-22T22:07:29.635Z,-0.43
2022-11-22T22:10:02.353Z,-0.31
2022-11-22T22:12:43.508Z,-0.22
2022-11-22T22:15:13.930Z,-0.20
2022-11-22T22:17:43.647Z,-0.30
2022-11-22T22:20:13.609Z,-0.17
2022-11-22T22:22:42.817Z,-0.20
2022-11-22T22:25:13.885Z,-0.28
2022-11-22T22:27:44.243Z,-0.42
2022-11-22T22:30:16.393Z,-0.41
2022-11-22T22:32:55.583Z,-0.51
2022-11-22T22:35:25.078Z,-0.45
2022-11-22T22:37:54.485Z,-0.51
2022-11-22T22:40:26.051Z,-0.46
2022-11-22T22:42:55.290Z,-0.47
2022-11-22T22:45:24.489Z,-0.58
2022-11-22T22:47:53.679Z,-0.34
2022-11-22T22:50:23.136Z,-0.34
2022-11-22T22:52:57.984Z,-0.38
2022-11-22T22:55:29.291Z,-0.54
2022-11-22T22:58:04.024Z,-0.55
2022-11-22T23:00:33.258Z,-0.30
2022-11-22T23:03:07.536Z,-0.33
2022-11-22T23:05:40.221Z,-0.30
2022-11-22T23:08:09.479Z,-0.22
2022-11-22T23:10:41.775Z,-0.26
2022-11-22T23:13:16.957Z,-0.38
2022-11-22T23:15:57.993Z,-0.32
2022-11-22T23:18:28.036Z,-0.33
2022-11-22T23:21:00.608Z,-0.30
2022-11-22T23:23:31.271Z,-0.26
2022-11-22T23:26:06.183Z,-0.39
2022-11-22T23:28:35.638Z,-0.35
2022-11-22T23:31:09.212Z,-0.21
2022-11-22T23:33:38.824Z,-0.30
2022-11-22T23:36:10.294Z,-0.27
2022-11-22T23:38:40.057Z,-0.24
2022-11-22T23:41:13.802Z,-0.19
2022-11-22T23:43:49.329Z,-0.16
2022-11-22T23:46:18.556Z,-0.22
2022-11-22T23:48:48.529Z,-0.26
2022-11-22T23:51:23.108Z,-0.18
2022-11-22T23:53:56.814Z,-0.14
2022-11-22T23:56:30.003Z,-0.35
2022-11-22T23:59:01.061Z,-0.24
